sensor_id;sensor_type;location;lat;lon;timestamp;P1;durP1;ratioP1;P2;durP2;ratioP2
8074;SDS011;4080;42.676;23.372;2023-09-19T18:31:15;17.97;;;16.03;;
8074;SDS011;4080;42.676;23.372;2023-09-19T18:33:43;11.00;;;8.43;;
8074;SDS011;4080;42.676;23.372;2023-09-19T18:36:12;11.27;;;8.87;;
8074;SDS011;4080;42.676;23.372;2023-09-19T18:38:38;14.00;;;9.07;;
8074;SDS011;4080;42.676;23.372;2023-09-19T18:41:06;9.23;;;8.23;;
8074;SDS011;4080;42.676;23.372;2023-09-19T18:43:34;10.83;;;8.80;;
8074;SDS011;4080;42.676;23.372;2023-09-19T18:46:02;11.67;;;7.50;;
8074;SDS011;4080;42.676;23.372;2023-09-19T18:48:31;8.83;;;6.93;;
8074;SDS011;4080;42.676;23.372;2023-09-19T18:51:03;9.43;;;6.90;;
8074;SDS011;4080;42.676;23.372;2023-09-19T18:53:31;7.53;;;6.50;;
8074;SDS011;4080;42.676;23.372;2023-09-19T18:56:02;9.97;;;7.00;;
8074;SDS011;4080;42.676;23.372;2023-09-19T18:58:29;9.93;;;7.40;;
8074;SDS011;4080;42.676;23.372;2023-09-19T19:01:00;8.17;;;7.10;;
8074;SDS011;4080;42.676;23.372;2023-09-19T19:03:27;7.17;;;6.47;;
8074;SDS011;4080;42.676;23.372;2023-09-19T19:05:56;7.40;;;6.50;;
8074;SDS011;4080;42.676;23.372;2023-09-19T19:08:24;7.87;;;6.70;;
8074;SDS011;4080;42.676;23.372;2023-09-19T19:10:51;9.03;;;6.87;;
8074;SDS011;4080;42.676;23.372;2023-09-19T19:13:18;10.43;;;6.97;;
8074;SDS011;4080;42.676;23.372;2023-09-19T19:15:45;10.53;;;7.40;;
8074;SDS011;4080;42.676;23.372;2023-09-19T19:18:11;10.50;;;7.43;;
8074;SDS011;4080;42.676;23.372;2023-09-19T19:20:38;11.37;;;8.17;;
8074;SDS011;4080;42.676;23.372;2023-09-19T19:23:08;10.70;;;7.60;;
8074;SDS011;4080;42.676;23.372;2023-09-19T19:25:36;9.67;;;8.17;;
8074;SDS011;4080;42.676;23.372;2023-09-19T19:28:12;8.97;;;7.77;;
8074;SDS011;4080;42.676;23.372;2023-09-19T19:30:42;12.57;;;8.17;;
8074;SDS011;4080;42.676;23.372;2023-09-19T19:33:09;12.53;;;8.17;;
8074;SDS011;4080;42.676;23.372;2023-09-19T19:35:37;9.73;;;7.17;;
8074;SDS011;4080;42.676;23.372;2023-09-19T19:38:05;13.50;;;7.37;;
8074;SDS011;4080;42.676;23.372;2023-09-19T19:40:33;9.30;;;8.00;;
8074;SDS011;4080;42.676;23.372;2023-09-19T19:43:01;11.90;;;7.80;;
8074;SDS011;4080;42.676;23.372;2023-09-19T19:45:28;8.57;;;7.70;;
8074;SDS011;4080;42.676;23.372;2023-09-19T19:47:55;8.43;;;7.37;;
8074;SDS011;4080;42.676;23.372;2023-09-19T19:50:23;9.00;;;7.57;;
8074;SDS011;4080;42.676;23.372;2023-09-19T19:52:50;7.60;;;6.90;;
8074;SDS011;4080;42.676;23.372;2023-09-19T19:55:21;7.90;;;7.20;;
8074;SDS011;4080;42.676;23.372;2023-09-19T19:57:53;8.07;;;7.10;;
8074;SDS011;4080;42.676;23.372;2023-09-19T20:00:20;10.23;;;7.50;;
8074;SDS011;4080;42.676;23.372;2023-09-19T20:02:47;9.47;;;7.33;;
8074;SDS011;4080;42.676;23.372;2023-09-19T20:05:15;10.43;;;6.80;;
8074;SDS011;4080;42.676;23.372;2023-09-19T20:07:42;8.13;;;7.33;;
8074;SDS011;4080;42.676;23.372;2023-09-19T20:10:10;7.10;;;6.40;;
8074;SDS011;4080;42.676;23.372;2023-09-19T20:12:41;7.83;;;6.93;;
8074;SDS011;4080;42.676;23.372;2023-09-19T20:15:10;9.10;;;7.97;;
8074;SDS011;4080;42.676;23.372;2023-09-19T20:17:36;7.83;;;7.07;;
8074;SDS011;4080;42.676;23.372;2023-09-19T20:20:04;6.63;;;5.90;;
8074;SDS011;4080;42.676;23.372;2023-09-19T20:22:38;7.27;;;6.40;;
8074;SDS011;4080;42.676;23.372;2023-09-19T20:25:05;11.47;;;6.93;;
8074;SDS011;4080;42.676;23.372;2023-09-19T20:27:33;8.97;;;7.13;;
8074;SDS011;4080;42.676;23.372;2023-09-19T20:30:00;13.23;;;8.73;;
8074;SDS011;4080;42.676;23.372;2023-09-19T20:32:28;17.30;;;10.63;;
8074;SDS011;4080;42.676;23.372;2023-09-19T20:34:55;15.30;;;10.70;;
8074;SDS011;4080;42.676;23.372;2023-09-19T20:37:24;12.47;;;11.13;;
8074;SDS011;4080;42.676;23.372;2023-09-19T20:39:51;12.73;;;11.07;;
8074;SDS011;4080;42.676;23.372;2023-09-19T20:42:19;16.63;;;11.77;;
8074;SDS011;4080;42.676;23.372;2023-09-19T20:44:48;14.30;;;10.90;;
8074;SDS011;4080;42.676;23.372;2023-09-19T20:47:15;11.47;;;10.27;;
8074;SDS011;4080;42.676;23.372;2023-09-19T20:49:43;11.80;;;9.70;;
8074;SDS011;4080;42.676;23.372;2023-09-19T20:52:10;10.70;;;9.50;;
8074;SDS011;4080;42.676;23.372;2023-09-19T20:54:37;12.60;;;9.80;;
8074;SDS011;4080;42.676;23.372;2023-09-19T20:57:08;13.67;;;10.10;;
8074;SDS011;4080;42.676;23.372;2023-09-19T20:59:35;15.00;;;9.90;;
8074;SDS011;4080;42.676;23.372;2023-09-19T21:02:03;13.33;;;9.53;;
8074;SDS011;4080;42.676;23.372;2023-09-19T21:04:30;10.73;;;9.63;;
8074;SDS011;4080;42.676;23.372;2023-09-19T21:06:59;14.47;;;9.83;;
8074;SDS011;4080;42.676;23.372;2023-09-19T21:09:25;13.00;;;9.60;;
8074;SDS011;4080;42.676;23.372;2023-09-19T21:11:53;14.47;;;9.27;;
8074;SDS011;4080;42.676;23.372;2023-09-19T21:14:20;10.20;;;8.30;;
8074;SDS011;4080;42.676;23.372;2023-09-19T21:16:47;12.67;;;8.50;;
8074;SDS011;4080;42.676;23.372;2023-09-19T21:19:15;14.30;;;9.23;;
8074;SDS011;4080;42.676;23.372;2023-09-19T21:21:42;12.10;;;8.43;;
8074;SDS011;4080;42.676;23.372;2023-09-19T21:24:12;8.60;;;7.70;;
8074;SDS011;4080;42.676;23.372;2023-09-19T21:26:42;14.20;;;6.80;;
8074;SDS011;4080;42.676;23.372;2023-09-19T21:29:08;8.97;;;7.37;;
8074;SDS011;4080;42.676;23.372;2023-09-19T21:31:35;10.33;;;7.20;;
8074;SDS011;4080;42.676;23.372;2023-09-19T21:34:02;9.43;;;7.20;;
8074;SDS011;4080;42.676;23.372;2023-09-19T21:36:30;10.57;;;7.97;;
8074;SDS011;4080;42.676;23.372;2023-09-19T21:38:58;11.33;;;8.73;;
8074;SDS011;4080;42.676;23.372;2023-09-19T21:41:27;10.03;;;8.73;;
8074;SDS011;4080;42.676;23.372;2023-09-19T21:43:53;10.10;;;8.43;;
8074;SDS011;4080;42.676;23.372;2023-09-19T21:46:20;10.10;;;9.03;;
8074;SDS011;4080;42.676;23.372;2023-09-19T21:48:47;9.27;;;8.20;;
8074;SDS011;4080;42.676;23.372;2023-09-19T21:51:15;11.00;;;8.07;;
8074;SDS011;4080;42.676;23.372;2023-09-19T21:53:42;9.47;;;8.00;;
8074;SDS011;4080;42.676;23.372;2023-09-19T21:56:09;8.77;;;7.50;;
8074;SDS011;4080;42.676;23.372;2023-09-19T21:58:38;8.53;;;7.73;;
8074;SDS011;4080;42.676;23.372;2023-09-19T22:01:05;10.10;;;7.40;;
8074;SDS011;4080;42.676;23.372;2023-09-19T22:03:33;7.80;;;6.70;;
8074;SDS011;4080;42.676;23.372;2023-09-19T22:06:02;6.70;;;6.10;;
8074;SDS011;4080;42.676;23.372;2023-09-19T22:08:31;7.70;;;6.63;;
8074;SDS011;4080;42.676;23.372;2023-09-19T22:10:58;6.80;;;6.00;;
8074;SDS011;4080;42.676;23.372;2023-09-19T22:13:26;7.77;;;6.57;;
8074;SDS011;4080;42.676;23.372;2023-09-19T22:15:55;7.30;;;6.60;;
8074;SDS011;4080;42.676;23.372;2023-09-19T22:18:23;6.63;;;6.00;;
8074;SDS011;4080;42.676;23.372;2023-09-19T22:20:52;8.17;;;5.50;;
8074;SDS011;4080;42.676;23.372;2023-09-19T22:23:24;7.73;;;5.63;;
8074;SDS011;4080;42.676;23.372;2023-09-19T22:25:57;8.70;;;5.43;;
8074;SDS011;4080;42.676;23.372;2023-09-19T22:28:28;7.03;;;5.07;;
8074;SDS011;4080;42.676;23.372;2023-09-19T22:30:59;6.10;;;5.23;;
8074;SDS011;4080;42.676;23.372;2023-09-19T22:33:27;6.20;;;5.43;;
8074;SDS011;4080;42.676;23.372;2023-09-19T22:35:54;6.53;;;5.30;;
8074;SDS011;4080;42.676;23.372;2023-09-19T22:38:23;7.33;;;5.07;;
8074;SDS011;4080;42.676;23.372;2023-09-19T22:40:50;6.97;;;5.40;;
8074;SDS011;4080;42.676;23.372;2023-09-19T22:43:18;5.60;;;4.97;;
8074;SDS011;4080;42.676;23.372;2023-09-19T22:45:46;6.73;;;5.00;;
8074;SDS011;4080;42.676;23.372;2023-09-19T22:48:15;7.40;;;4.90;;
8074;SDS011;4080;42.676;23.372;2023-09-19T22:50:42;6.47;;;5.30;;
8074;SDS011;4080;42.676;23.372;2023-09-19T22:53:11;5.73;;;5.23;;
8074;SDS011;4080;42.676;23.372;2023-09-19T22:55:43;4.97;;;4.57;;
8074;SDS011;4080;42.676;23.372;2023-09-19T22:58:11;6.03;;;4.50;;
8074;SDS011;4080;42.676;23.372;2023-09-19T23:00:38;4.67;;;4.10;;
8074;SDS011;4080;42.676;23.372;2023-09-19T23:03:07;4.83;;;4.43;;
8074;SDS011;4080;42.676;23.372;2023-09-19T23:05:36;5.03;;;4.50;;
8074;SDS011;4080;42.676;23.372;2023-09-19T23:08:05;5.10;;;4.60;;
8074;SDS011;4080;42.676;23.372;2023-09-19T23:10:40;5.77;;;4.57;;
8074;SDS011;4080;42.676;23.372;2023-09-19T23:13:09;6.43;;;4.83;;
8074;SDS011;4080;42.676;23.372;2023-09-19T23:15:36;5.60;;;5.10;;
8074;SDS011;4080;42.676;23.372;2023-09-19T23:18:04;9.60;;;4.87;;
8074;SDS011;4080;42.676;23.372;2023-09-19T23:20:37;6.93;;;4.77;;
8074;SDS011;4080;42.676;23.372;2023-09-19T23:23:07;5.30;;;4.80;;
8074;SDS011;4080;42.676;23.372;2023-09-19T23:25:40;5.77;;;4.90;;
8074;SDS011;4080;42.676;23.372;2023-09-19T23:28:06;7.50;;;5.17;;
8074;SDS011;4080;42.676;23.372;2023-09-19T23:30:36;5.53;;;4.93;;
8074;SDS011;4080;42.676;23.372;2023-09-19T23:33:03;7.93;;;4.90;;
8074;SDS011;4080;42.676;23.372;2023-09-19T23:35:31;6.33;;;4.87;;
8074;SDS011;4080;42.676;23.372;2023-09-19T23:38:00;6.57;;;5.00;;
8074;SDS011;4080;42.676;23.372;2023-09-19T23:40:26;7.30;;;5.23;;
8074;SDS011;4080;42.676;23.372;2023-09-19T23:42:55;5.80;;;5.20;;
8074;SDS011;4080;42.676;23.372;2023-09-19T23:45:24;5.73;;;5.23;;
8074;SDS011;4080;42.676;23.372;2023-09-19T23:47:52;6.30;;;5.07;;
8074;SDS011;4080;42.676;23.372;2023-09-19T23:50:19;7.60;;;5.60;;
8074;SDS011;4080;42.676;23.372;2023-09-19T23:52:47;6.07;;;5.47;;
8074;SDS011;4080;42.676;23.372;2023-09-19T23:55:16;7.60;;;5.77;;
8074;SDS011;4080;42.676;23.372;2023-09-19T23:57:50;6.83;;;6.23;;
